createdAt,value
2023-04-07T00:00:38.854Z,102568.20
2023-04-07T00:03:19.607Z,102568.80
2023-04-07T00:05:47.046Z,102572.00
2023-04-07T00:08:14.130Z,102578.00
2023-04-07T00:10:41.090Z,102574.40
2023-04-07T00:13:11.552Z,102570.40
2023-04-07T00:15:40.358Z,102572.20
2023-04-07T00:18:07.276Z,102581.80
2023-04-07T00:20:35.166Z,102586.80
2023-04-07T00:23:01.804Z,102586.60
2023-04-07T00:25:28.341Z,102584.80
2023-04-07T00:27:55.651Z,102587.40
2023-04-07T00:30:23.277Z,102590.80
2023-04-07T00:32:51.272Z,102594.40
2023-04-07T00:35:18.333Z,102597.60
2023-04-07T00:37:45.122Z,102601.60
2023-04-07T00:40:11.953Z,102601.40
2023-04-07T00:42:39.629Z,102601.40
2023-04-07T00:45:07.103Z,102598.20
2023-04-07T00:47:33.967Z,102603.80
2023-04-07T00:50:04.444Z,102608.20
2023-04-07T00:52:33.356Z,102604.40
2023-04-07T00:55:00.615Z,102602.20
2023-04-07T00:57:27.473Z,102598.60
2023-04-07T00:59:55.781Z,102604.20
2023-04-07T01:02:58.441Z,102606.40
2023-04-07T01:05:38.294Z,102608.40
2023-04-07T01:08:35.104Z,102612.40
2023-04-07T01:11:24.613Z,102616.80
2023-04-07T01:13:53.805Z,102621.60
2023-04-07T01:16:50.437Z,102618.00
2023-04-07T01:19:39.588Z,102617.00
2023-04-07T01:22:17.205Z,102623.40
2023-04-07T01:25:17.885Z,102627.20
2023-04-07T01:27:53.806Z,102627.20
2023-04-07T01:30:29.268Z,102627.60
2023-04-07T01:32:59.812Z,102626.00
2023-04-07T01:35:31.823Z,102626.80
2023-04-07T01:38:01.356Z,102627.00
2023-04-07T01:40:29.616Z,102623.20
2023-04-07T01:42:58.433Z,102625.60
2023-04-07T01:45:28.115Z,102625.40
2023-04-07T01:47:55.499Z,102627.20
2023-04-07T01:50:23.094Z,102627.00
2023-04-07T01:52:50.694Z,102628.60
2023-04-07T01:55:19.360Z,102634.20
2023-04-07T01:57:46.635Z,102628.00
2023-04-07T02:00:14.057Z,102629.00
2023-04-07T02:02:46.516Z,102635.40
2023-04-07T02:05:18.811Z,102636.60
2023-04-07T02:08:03.897Z,102636.20
2023-04-07T02:10:36.951Z,102640.40
2023-04-07T02:13:06.476Z,102645.20
2023-04-07T02:15:35.406Z,102649.00
2023-04-07T02:18:04.658Z,102647.20
2023-04-07T02:20:32.507Z,102650.80
2023-04-07T02:22:59.520Z,102657.60
2023-04-07T02:25:29.690Z,102658.60
2023-04-07T02:27:58.805Z,102655.40
2023-04-07T02:30:27.371Z,102654.20
2023-04-07T02:32:54.378Z,102659.00
2023-04-07T02:35:21.315Z,102660.00
2023-04-07T02:37:49.325Z,102662.80
2023-04-07T02:40:16.591Z,102665.20
2023-04-07T02:42:44.319Z,102669.40
2023-04-07T02:45:13.205Z,102676.60
2023-04-07T02:47:39.995Z,102680.60
2023-04-07T02:50:07.545Z,102682.60
2023-04-07T02:52:35.185Z,102688.60
2023-04-07T02:55:02.205Z,102691.60
2023-04-07T02:57:28.596Z,102695.40
2023-04-07T02:59:57.330Z,102701.20
2023-04-07T03:02:25.455Z,102698.60
2023-04-07T03:04:52.850Z,102706.20
2023-04-07T03:07:19.541Z,102712.80
2023-04-07T03:09:46.683Z,102711.20
2023-04-07T03:12:13.391Z,102707.60
2023-04-07T03:14:40.344Z,102710.80
2023-04-07T03:17:07.511Z,102715.40
2023-04-07T03:19:34.042Z,102711.40
2023-04-07T03:22:01.833Z,102712.60
2023-04-07T03:24:28.316Z,102712.40
2023-04-07T03:26:55.590Z,102717.20
2023-04-07T03:29:26.334Z,102723.00
2023-04-07T03:31:53.740Z,102723.40
2023-04-07T03:34:21.130Z,102730.40
2023-04-07T03:36:47.694Z,102725.60
2023-04-07T03:39:14.347Z,102729.60
2023-04-07T03:41:42.914Z,102733.00
2023-04-07T03:44:10.185Z,102734.80
2023-04-07T03:46:37.684Z,102737.80
2023-04-07T03:49:10.101Z,102740.20
2023-04-07T03:51:36.609Z,102744.00
2023-04-07T03:54:03.716Z,102741.80
2023-04-07T03:56:30.525Z,102745.20
2023-04-07T03:58:58.153Z,102747.60
2023-04-07T04:01:24.848Z,102750.60
2023-04-07T04:03:51.787Z,102756.00
2023-04-07T04:06:18.630Z,102755.00
2023-04-07T04:08:46.681Z,102754.00
2023-04-07T04:11:13.533Z,102756.80
2023-04-07T04:13:40.496Z,102759.00
2023-04-07T04:16:15.401Z,102760.00
2023-04-07T04:18:42.044Z,102754.20
2023-04-07T04:21:09.527Z,102749.40
2023-04-07T04:23:36.711Z,102750.40
2023-04-07T04:26:03.292Z,102752.20
2023-04-07T04:28:30.702Z,102754.60
2023-04-07T04:30:58.420Z,102756.40
2023-04-07T04:33:25.079Z,102760.00
2023-04-07T04:35:51.707Z,102761.20
2023-04-07T04:38:18.861Z,102761.60
2023-04-07T04:40:45.897Z,102761.80
2023-04-07T04:43:13.045Z,102765.80
2023-04-07T04:45:39.427Z,102768.80
2023-04-07T04:48:06.520Z,102766.80
2023-04-07T04:50:33.247Z,102767.80
2023-04-07T04:52:59.722Z,102765.00
2023-04-07T04:55:26.149Z,102770.00
2023-04-07T04:57:52.989Z,102769.20
2023-04-07T05:00:20.744Z,102771.80
2023-04-07T05:02:49.246Z,102772.80
2023-04-07T05:05:16.124Z,102777.00
2023-04-07T05:07:42.823Z,102776.60
2023-04-07T05:10:09.715Z,102778.40
2023-04-07T05:12:36.493Z,102786.20
2023-04-07T05:15:03.554Z,102788.80
2023-04-07T05:17:30.551Z,102796.60
2023-04-07T05:19:57.137Z,102798.60
2023-04-07T05:22:23.516Z,102797.60
2023-04-07T05:24:50.932Z,102806.00
2023-04-07T05:27:17.438Z,102808.20
2023-04-07T05:29:44.398Z,102806.00
2023-04-07T05:32:10.975Z,102807.40
2023-04-07T05:34:37.511Z,102810.00
2023-04-07T05:37:03.919Z,102817.00
2023-04-07T05:39:31.119Z,102816.60
2023-04-07T05:41:58.202Z,102821.40
2023-04-07T05:44:24.975Z,102826.80
2023-04-07T05:46:51.788Z,102828.80
2023-04-07T05:49:19.959Z,102832.40
2023-04-07T05:51:49.190Z,102835.00
2023-04-07T05:54:16.376Z,102831.60
2023-04-07T05:56:43.470Z,102832.40
2023-04-07T05:59:10.464Z,102829.80
2023-04-07T06:01:37.966Z,102829.60
2023-04-07T06:04:04.603Z,102831.60
2023-04-07T06:06:31.822Z,102829.20
2023-04-07T06:08:58.319Z,102834.00
2023-04-07T06:11:26.667Z,102833.00
2023-04-07T06:13:53.442Z,102843.80
2023-04-07T06:16:20.666Z,102844.20
2023-04-07T06:18:47.344Z,102850.00
2023-04-07T06:21:14.155Z,102852.20
2023-04-07T06:23:40.791Z,102852.40
2023-04-07T06:26:12.108Z,102852.60
2023-04-07T06:28:39.382Z,102851.20
2023-04-07T06:31:08.064Z,102854.00
2023-04-07T06:33:34.855Z,102855.20
2023-04-07T06:36:01.613Z,102856.40
2023-04-07T06:38:28.220Z,102857.00
2023-04-07T06:40:54.757Z,102862.00
2023-04-07T06:43:21.290Z,102868.40
2023-04-07T06:45:47.869Z,102876.20
2023-04-07T06:48:15.089Z,102882.60
2023-04-07T06:53:32.598Z,102886.20
2023-04-07T06:56:08.963Z,102887.20
2023-04-07T06:58:36.485Z,102883.80
2023-04-07T07:01:04.811Z,102891.20
2023-04-07T07:03:32.653Z,102891.00
2023-04-07T07:06:00.559Z,102894.60
2023-04-07T07:08:29.236Z,102900.00
2023-04-07T07:10:56.730Z,102903.40
2023-04-07T07:13:26.085Z,102903.40
2023-04-07T07:15:53.200Z,102903.40
2023-04-07T07:18:21.514Z,102909.20
2023-04-07T07:20:48.534Z,102909.60
2023-04-07T07:23:15.545Z,102909.00
2023-04-07T07:25:42.881Z,102914.60
2023-04-07T07:28:09.352Z,102922.20
2023-04-07T07:30:39.747Z,102917.40
2023-04-07T07:33:06.980Z,102919.60
2023-04-07T07:35:34.742Z,102929.60
2023-04-07T07:38:01.523Z,102937.60
2023-04-07T07:40:27.970Z,102935.20
2023-04-07T07:42:54.928Z,102939.60
2023-04-07T07:45:21.717Z,102943.80
2023-04-07T07:47:48.612Z,102949.40
2023-04-07T07:50:15.953Z,102951.40
2023-04-07T07:52:42.699Z,102953.20
2023-04-07T07:55:11.164Z,102956.00
2023-04-07T07:57:38.030Z,102955.80
2023-04-07T08:00:07.260Z,102954.60
2023-04-07T08:02:33.831Z,102958.80
2023-04-07T08:05:00.882Z,102958.60
2023-04-07T08:07:27.979Z,102958.20
2023-04-07T08:09:54.618Z,102959.20
2023-04-07T08:12:21.421Z,102964.40
2023-04-07T08:14:49.284Z,102974.00
2023-04-07T08:17:16.787Z,102969.00
2023-04-07T08:19:44.030Z,102967.80
2023-04-07T08:22:10.571Z,102969.00
2023-04-07T08:24:37.572Z,102973.20
2023-04-07T08:27:04.117Z,102973.80
2023-04-07T08:29:31.296Z,102977.60
2023-04-07T08:31:58.867Z,102980.80
2023-04-07T08:34:25.960Z,102988.00
2023-04-07T08:36:52.530Z,102988.40
2023-04-07T08:39:19.267Z,102993.80
2023-04-07T08:41:49.619Z,102995.60
2023-04-07T08:44:20.394Z,103000.40
2023-04-07T08:46:48.565Z,103004.80
2023-04-07T08:49:19.205Z,103002.80
2023-04-07T08:51:47.626Z,103010.40
2023-04-07T08:54:18.279Z,103014.00
2023-04-07T08:56:45.221Z,103012.20
2023-04-07T08:59:17.917Z,103013.20
2023-04-07T09:01:47.099Z,103014.20
2023-04-07T09:04:14.214Z,103019.80
2023-04-07T09:06:43.088Z,103021.40
2023-04-07T09:09:09.642Z,103020.20
2023-04-07T09:11:40.465Z,103023.00
2023-04-07T09:14:07.971Z,103019.20
2023-04-07T09:16:35.349Z,103019.40
2023-04-07T09:19:02.145Z,103026.80
2023-04-07T09:21:51.843Z,103026.60
2023-04-07T09:24:28.304Z,103026.60
2023-04-07T09:27:17.494Z,103021.60
2023-04-07T09:29:46.987Z,103022.20
2023-04-07T09:32:44.171Z,103021.60
2023-04-07T09:35:11.007Z,103019.40
2023-04-07T09:37:37.547Z,103026.60
2023-04-07T09:40:05.163Z,103027.60
2023-04-07T09:42:36.521Z,103027.20
2023-04-07T09:45:03.769Z,103031.20
2023-04-07T09:47:32.741Z,103030.60
2023-04-07T09:50:06.181Z,103030.20
2023-04-07T09:52:53.830Z,103033.40
2023-04-07T09:55:22.505Z,103038.00
2023-04-07T09:57:51.724Z,103034.40
2023-04-07T10:00:19.403Z,103038.60
2023-04-07T10:02:47.351Z,103039.00
2023-04-07T10:05:14.750Z,103042.00
2023-04-07T10:07:42.960Z,103045.40
2023-04-07T10:10:11.579Z,103045.60
2023-04-07T10:12:40.717Z,103046.80
2023-04-07T10:15:13.513Z,103045.00
2023-04-07T10:17:48.934Z,103046.20
2023-04-07T10:20:22.936Z,103043.40
2023-04-07T10:22:58.156Z,103040.20
2023-04-07T10:25:27.113Z,103037.20
2023-04-07T10:28:05.372Z,103038.60
2023-04-07T10:30:35.928Z,103039.60
2023-04-07T10:33:02.911Z,103040.00
2023-04-07T10:36:05.385Z,103046.20
2023-04-07T10:38:33.013Z,103045.00
2023-04-07T10:40:59.526Z,103046.20
2023-04-07T10:43:46.472Z,103045.00
2023-04-07T10:46:13.774Z,103044.60
2023-04-07T10:48:41.030Z,103048.80
2023-04-07T10:51:10.103Z,103051.20
2023-04-07T10:54:23.469Z,103050.20
2023-04-07T10:57:03.162Z,103048.40
2023-04-07T10:59:31.707Z,103053.40
2023-04-07T11:02:17.130Z,103055.20
2023-04-07T11:04:46.355Z,103056.60
2023-04-07T11:07:15.702Z,103059.20
2023-04-07T11:09:42.419Z,103060.40
2023-04-07T11:12:24.150Z,103062.80
2023-04-07T11:14:52.686Z,103065.60
2023-04-07T11:17:19.654Z,103072.40
2023-04-07T11:19:53.414Z,103073.20
2023-04-07T11:24:49.631Z,103077.60
2023-04-07T11:27:16.112Z,103075.60
2023-04-07T11:29:43.220Z,103078.20
2023-04-07T11:32:12.405Z,103081.40
2023-04-07T11:34:40.183Z,103090.00
2023-04-07T11:37:30.562Z,103089.20
2023-04-07T11:40:00.324Z,103083.00
2023-04-07T11:42:34.727Z,103087.60
2023-04-07T11:45:01.997Z,103092.00
2023-04-07T11:47:40.396Z,103097.00
2023-04-07T11:50:08.418Z,103098.60
2023-04-07T11:52:48.045Z,103100.80
2023-04-07T11:55:26.620Z,103102.60
2023-04-07T11:57:53.544Z,103106.60
2023-04-07T12:00:21.685Z,103108.40
2023-04-07T12:02:48.400Z,103105.00
2023-04-07T12:05:15.469Z,103106.00
2023-04-07T12:07:54.934Z,103108.40
2023-04-07T12:10:28.772Z,103111.40
2023-04-07T12:12:58.116Z,103117.00
2023-04-07T12:15:29.343Z,103121.00
2023-04-07T12:17:57.384Z,103121.80
2023-04-07T12:20:26.058Z,103126.20
2023-04-07T12:22:53.539Z,103131.00
2023-04-07T12:25:21.531Z,103128.80
2023-04-07T12:27:48.333Z,103132.00
2023-04-07T12:30:17.381Z,103126.60
2023-04-07T12:32:45.058Z,103125.80
2023-04-07T12:35:12.245Z,103133.00
2023-04-07T12:37:42.393Z,103136.00
2023-04-07T12:40:11.922Z,103141.80
2023-04-07T12:42:39.342Z,103137.00
2023-04-07T12:45:07.686Z,103138.20
2023-04-07T12:47:34.217Z,103143.20
2023-04-07T12:50:01.888Z,103143.80
2023-04-07T12:52:32.438Z,103149.60
2023-04-07T12:54:59.516Z,103152.40
2023-04-07T12:57:26.896Z,103150.40
2023-04-07T12:59:53.882Z,103151.60
2023-04-07T13:02:21.179Z,103150.60
2023-04-07T13:04:48.040Z,103152.60
2023-04-07T13:07:14.882Z,103151.60
2023-04-07T13:09:43.069Z,103153.60
2023-04-07T13:12:12.760Z,103157.40
2023-04-07T13:14:53.158Z,103157.20
2023-04-07T13:17:26.412Z,103163.60
2023-04-07T13:19:53.029Z,103164.00
2023-04-07T13:22:22.214Z,103163.00
2023-04-07T13:24:50.798Z,103166.00
2023-04-07T13:27:19.080Z,103173.80
2023-04-07T13:29:46.730Z,103169.40
2023-04-07T13:32:14.212Z,103167.60
2023-04-07T13:34:41.579Z,103165.60
2023-04-07T13:37:08.226Z,103161.80
2023-04-07T13:39:36.436Z,103162.40
2023-04-07T13:42:06.329Z,103157.80
2023-04-07T13:44:34.061Z,103161.60
2023-04-07T13:47:01.261Z,103163.60
2023-04-07T13:49:29.151Z,103164.80
2023-04-07T13:51:58.596Z,103166.40
2023-04-07T13:54:27.968Z,103165.40
2023-04-07T13:56:55.425Z,103163.20
2023-04-07T13:59:23.522Z,103159.60
2023-04-07T14:01:50.380Z,103153.20
2023-04-07T14:04:17.829Z,103156.80
2023-04-07T14:06:45.429Z,103152.00
2023-04-07T14:09:12.276Z,103154.20
2023-04-07T14:11:43.872Z,103152.80
2023-04-07T14:14:11.992Z,103149.80
2023-04-07T14:16:39.701Z,103152.80
2023-04-07T14:19:08.007Z,103147.00
2023-04-07T14:21:35.205Z,103147.80
2023-04-07T14:24:03.760Z,103142.20
2023-04-07T14:26:34.772Z,103142.00
2023-04-07T14:29:03.089Z,103142.40
2023-04-07T14:31:31.678Z,103143.00
2023-04-07T14:33:59.552Z,103145.60
2023-04-07T14:36:26.680Z,103144.20
2023-04-07T14:38:53.855Z,103146.20
2023-04-07T14:41:20.824Z,103143.60
2023-04-07T14:43:56.072Z,103139.00
2023-04-07T14:46:24.222Z,103138.60
2023-04-07T14:48:51.877Z,103141.60
2023-04-07T14:51:22.568Z,103136.60
2023-04-07T14:53:55.272Z,103136.80
2023-04-07T14:56:22.049Z,103131.40
2023-04-07T14:58:48.494Z,103131.60
2023-04-07T15:01:15.358Z,103133.20
2023-04-07T15:03:47.095Z,103134.20
2023-04-07T15:06:16.378Z,103135.80
2023-04-07T15:08:44.920Z,103133.60
2023-04-07T15:11:15.668Z,103137.80
2023-04-07T15:13:42.217Z,103141.40
2023-04-07T15:16:12.338Z,103140.20
2023-04-07T15:18:44.748Z,103140.00
2023-04-07T15:21:15.761Z,103133.40
2023-04-07T15:23:43.617Z,103128.60
2023-04-07T15:26:10.874Z,103127.80
2023-04-07T15:28:39.758Z,103126.60
2023-04-07T15:31:09.385Z,103126.60
2023-04-07T15:33:39.537Z,103129.40
2023-04-07T15:36:08.515Z,103127.20
2023-04-07T15:38:38.615Z,103127.00
2023-04-07T15:41:05.848Z,103122.60
2023-04-07T15:43:33.890Z,103126.20
2023-04-07T15:46:00.926Z,103124.80
2023-04-07T15:48:27.381Z,103124.40
2023-04-07T15:50:55.043Z,103129.80
2023-04-07T15:53:23.681Z,103129.00
2023-04-07T15:55:50.485Z,103131.80
2023-04-07T15:58:17.926Z,103125.80
2023-04-07T16:00:45.552Z,103131.20
2023-04-07T16:03:12.244Z,103129.60
2023-04-07T16:05:39.040Z,103129.60
2023-04-07T16:08:05.580Z,103136.20
2023-04-07T16:10:36.284Z,103138.00
2023-04-07T16:13:03.761Z,103139.20
2023-04-07T16:15:40.098Z,103142.00
2023-04-07T16:18:11.727Z,103144.60
2023-04-07T16:20:38.746Z,103145.40
2023-04-07T16:23:06.258Z,103139.20
2023-04-07T16:25:34.160Z,103140.80
2023-04-07T16:28:01.538Z,103149.00
2023-04-07T16:30:28.239Z,103149.00
2023-04-07T16:32:54.974Z,103152.80
2023-04-07T16:35:21.617Z,103158.00
2023-04-07T16:37:49.389Z,103158.60
2023-04-07T16:40:17.925Z,103158.20
2023-04-07T16:42:45.328Z,103158.60
2023-04-07T16:45:11.870Z,103160.60
2023-04-07T16:47:38.555Z,103160.00
2023-04-07T16:50:06.159Z,103162.60
2023-04-07T16:52:32.774Z,103154.60
2023-04-07T16:55:00.398Z,103160.40
2023-04-07T16:57:28.633Z,103158.40
2023-04-07T16:59:55.074Z,103156.80
2023-04-07T17:02:24.261Z,103158.80
2023-04-07T17:04:57.717Z,103163.40
2023-04-07T17:07:28.124Z,103163.80
2023-04-07T17:09:57.085Z,103167.20
2023-04-07T17:12:27.219Z,103166.20
2023-04-07T17:14:56.880Z,103172.80
2023-04-07T17:17:23.491Z,103177.60
2023-04-07T17:19:59.263Z,103177.00
2023-04-07T17:22:26.017Z,103184.20
2023-04-07T17:24:55.318Z,103184.20
2023-04-07T17:27:23.203Z,103184.20
2023-04-07T17:29:50.040Z,103188.40
2023-04-07T17:32:17.822Z,103190.00
2023-04-07T17:34:48.181Z,103195.20
2023-04-07T17:37:34.398Z,103196.20
2023-04-07T17:40:01.640Z,103192.60
2023-04-07T17:42:32.368Z,103190.00
2023-04-07T17:45:02.710Z,103193.60
2023-04-07T17:47:36.997Z,103194.40
2023-04-07T17:50:14.703Z,103197.20
2023-04-07T17:52:42.171Z,103200.20
2023-04-07T17:55:14.398Z,103200.80
2023-04-07T17:57:49.901Z,103203.80
2023-04-07T18:00:17.968Z,103199.00
2023-04-07T18:02:45.456Z,103208.20
2023-04-07T18:05:16.464Z,103205.60
2023-04-07T18:07:44.471Z,103201.60
2023-04-07T18:10:31.661Z,103209.60
2023-04-07T18:13:10.557Z,103213.60
2023-04-07T18:15:45.472Z,103216.00
2023-04-07T18:18:13.272Z,103221.60
2023-04-07T18:20:40.946Z,103222.60
2023-04-07T18:23:10.030Z,103228.40
2023-04-07T18:25:38.397Z,103232.00
2023-04-07T18:28:05.500Z,103241.00
2023-04-07T18:30:32.654Z,103244.60
2023-04-07T18:33:02.239Z,103248.60
2023-04-07T18:35:30.997Z,103255.00
2023-04-07T18:37:58.481Z,103257.00
2023-04-07T18:40:29.379Z,103264.40
2023-04-07T18:42:56.649Z,103268.00
2023-04-07T18:45:23.581Z,103270.40
2023-04-07T18:47:52.342Z,103273.60
2023-04-07T18:50:21.180Z,103279.00
2023-04-07T18:52:49.780Z,103280.80
2023-04-07T18:55:25.425Z,103289.80
2023-04-07T18:58:00.384Z,103289.80
2023-04-07T19:00:34.662Z,103292.40
2023-04-07T19:03:16.940Z,103296.60
2023-04-07T19:05:47.797Z,103298.60
2023-04-07T19:08:15.931Z,103297.80
2023-04-07T19:10:54.686Z,103301.00
2023-04-07T19:13:21.541Z,103299.40
2023-04-07T19:15:51.845Z,103298.60
2023-04-07T19:18:21.809Z,103299.80
2023-04-07T19:20:48.886Z,103302.20
2023-04-07T19:23:16.674Z,103307.40
2023-04-07T19:25:45.997Z,103306.20
2023-04-07T19:28:14.941Z,103306.60
2023-04-07T19:30:42.752Z,103308.40
2023-04-07T19:33:18.886Z,103307.40
2023-04-07T19:35:46.974Z,103311.40
2023-04-07T19:38:15.589Z,103312.60
2023-04-07T19:40:47.334Z,103313.20
2023-04-07T19:43:16.505Z,103311.00
2023-04-07T19:45:49.754Z,103312.20
2023-04-07T19:48:21.875Z,103315.80
2023-04-07T19:50:50.755Z,103313.40
2023-04-07T19:53:18.273Z,103311.20
2023-04-07T19:55:48.508Z,103311.80
2023-04-07T19:58:18.422Z,103311.60
2023-04-07T20:00:51.238Z,103311.80
2023-04-07T20:03:30.729Z,103311.60
2023-04-07T20:06:00.418Z,103311.40
2023-04-07T20:08:26.884Z,103314.20
2023-04-07T20:10:54.873Z,103319.40
2023-04-07T20:13:24.783Z,103321.20
2023-04-07T20:15:53.286Z,103319.00
2023-04-07T20:18:22.796Z,103314.80
2023-04-07T20:20:50.143Z,103320.20
2023-04-07T20:23:26.733Z,103320.80
2023-04-07T20:25:53.359Z,103320.00
2023-04-07T20:28:22.515Z,103318.60
2023-04-07T20:30:49.235Z,103321.20
2023-04-07T20:33:17.786Z,103316.60
2023-04-07T20:35:46.673Z,103320.20
2023-04-07T20:38:15.774Z,103316.60
2023-04-07T20:40:42.564Z,103319.60
2023-04-07T20:43:10.069Z,103326.00
2023-04-07T20:45:40.992Z,103319.40
2023-04-07T20:48:22.212Z,103321.60
2023-04-07T20:50:54.026Z,103327.80
2023-04-07T20:53:22.060Z,103331.00
2023-04-07T20:55:52.943Z,103328.00
2023-04-07T20:58:29.625Z,103327.40
2023-04-07T21:01:01.601Z,103325.60
2023-04-07T21:03:30.130Z,103327.60
2023-04-07T21:05:59.380Z,103330.00
2023-04-07T21:08:30.292Z,103321.40
2023-04-07T21:10:59.049Z,103319.20
2023-04-07T21:13:28.495Z,103316.40
2023-04-07T21:15:57.278Z,103318.60
2023-04-07T21:18:25.970Z,103321.80
2023-04-07T21:20:52.523Z,103318.40
2023-04-07T21:23:19.977Z,103318.60
2023-04-07T21:25:48.072Z,103314.60
2023-04-07T21:28:15.630Z,103321.60
2023-04-07T21:30:44.497Z,103318.20
2023-04-07T21:33:16.483Z,103315.80
2023-04-07T21:35:44.956Z,103322.40
2023-04-07T21:38:15.300Z,103325.60
2023-04-07T21:40:43.069Z,103330.20
2023-04-07T21:43:09.584Z,103329.60
2023-04-07T21:45:35.928Z,103330.60
2023-04-07T21:48:06.090Z,103333.40
2023-04-07T21:50:33.338Z,103327.20
2023-04-07T21:53:00.127Z,103328.80
2023-04-07T21:55:28.093Z,103329.80
2023-04-07T21:57:55.253Z,103331.40
2023-04-07T22:00:21.896Z,103326.40
2023-04-07T22:02:50.690Z,103330.40
2023-04-07T22:05:18.672Z,103330.60
2023-04-07T22:07:53.158Z,103329.80
2023-04-07T22:10:20.103Z,103335.20
2023-04-07T22:12:48.114Z,103333.20
2023-04-07T22:15:15.633Z,103337.80
2023-04-07T22:17:43.146Z,103341.20
2023-04-07T22:20:13.558Z,103343.40
2023-04-07T22:22:41.396Z,103344.60
2023-04-07T22:25:08.618Z,103346.00
2023-04-07T22:27:36.117Z,103344.20
2023-04-07T22:30:03.917Z,103347.40
2023-04-07T22:32:31.237Z,103353.40
2023-04-07T22:35:00.104Z,103352.80
2023-04-07T22:37:27.181Z,103351.00
2023-04-07T22:39:56.200Z,103355.00
2023-04-07T22:42:22.974Z,103352.80
2023-04-07T22:44:49.349Z,103350.20
2023-04-07T22:47:19.346Z,103349.20
2023-04-07T22:49:46.929Z,103351.20
2023-04-07T22:52:16.229Z,103349.80
2023-04-07T22:54:44.185Z,103352.00
2023-04-07T22:57:10.711Z,103353.80
2023-04-07T22:59:37.634Z,103359.20
2023-04-07T23:02:04.225Z,103362.60
2023-04-07T23:04:31.080Z,103361.00
2023-04-07T23:06:57.872Z,103360.40
2023-04-07T23:09:25.170Z,103362.00
2023-04-07T23:11:51.560Z,103365.20
2023-04-07T23:14:20.986Z,103364.20
2023-04-07T23:16:47.538Z,103362.00
2023-04-07T23:19:15.140Z,103360.20
2023-04-07T23:21:42.960Z,103355.80
2023-04-07T23:24:10.703Z,103358.60
2023-04-07T23:26:39.237Z,103362.60
2023-04-07T23:29:06.056Z,103362.20
2023-04-07T23:31:35.885Z,103361.60
2023-04-07T23:34:04.399Z,103365.80
2023-04-07T23:36:33.055Z,103365.80
2023-04-07T23:39:02.368Z,103368.80
2023-04-07T23:41:31.227Z,103364.80
2023-04-07T23:43:59.410Z,103368.80
2023-04-07T23:46:28.943Z,103367.00
2023-04-07T23:48:55.516Z,103367.40
2023-04-07T23:51:24.864Z,103368.20
2023-04-07T23:53:51.589Z,103371.20
2023-04-07T23:56:17.989Z,103370.60
2023-04-07T23:58:44.727Z,103361.40
